sensor_id;sensor_type;location;lat;lon;timestamp;pressure;altitude;pressure_sealevel;temperature;humidity
58385;BME280;44185;47.844;8.966;2022-12-05T00:01:12;95922.94;;;0.33;100.00
58385;BME280;44185;47.844;8.966;2022-12-05T00:03:38;95917.28;;;0.42;100.00
58385;BME280;44185;47.844;8.966;2022-12-05T00:06:05;95917.09;;;0.46;100.00
58385;BME280;44185;47.844;8.966;2022-12-05T00:08:31;95915.09;;;0.51;100.00
58385;BME280;44185;47.844;8.966;2022-12-05T00:10:56;95918.81;;;0.29;100.00
58385;BME280;44185;47.844;8.966;2022-12-05T00:13:22;95924.44;;;0.37;100.00
58385;BME280;44185;47.844;8.966;2022-12-05T00:15:47;95939.44;;;0.32;100.00
58385;BME280;44185;47.844;8.966;2022-12-05T00:18:12;95939.69;;;0.27;100.00
58385;BME280;44185;47.844;8.966;2022-12-05T00:20:43;95949.09;;;0.30;100.00
58385;BME280;44185;47.844;8.966;2022-12-05T00:23:10;95965.25;;;0.19;100.00
58385;BME280;44185;47.844;8.966;2022-12-05T00:25:36;95955.81;;;0.16;100.00
58385;BME280;44185;47.844;8.966;2022-12-05T00:28:01;95958.28;;;0.19;100.00
58385;BME280;44185;47.844;8.966;2022-12-05T00:30:27;95969.38;;;0.05;100.00
58385;BME280;44185;47.844;8.966;2022-12-05T00:32:52;95968.03;;;0.16;100.00
58385;BME280;44185;47.844;8.966;2022-12-05T00:35:18;95968.63;;;0.21;100.00
58385;BME280;44185;47.844;8.966;2022-12-05T00:37:43;95970.94;;;0.27;100.00
58385;BME280;44185;47.844;8.966;2022-12-05T00:40:10;95961.06;;;0.34;100.00
58385;BME280;44185;47.844;8.966;2022-12-05T00:42:36;95957.63;;;0.33;100.00
58385;BME280;44185;47.844;8.966;2022-12-05T00:45:01;95955.88;;;0.34;100.00
58385;BME280;44185;47.844;8.966;2022-12-05T00:47:27;95963.50;;;0.37;100.00
58385;BME280;44185;47.844;8.966;2022-12-05T00:49:52;95964.13;;;0.42;100.00
58385;BME280;44185;47.844;8.966;2022-12-05T00:52:20;95968.94;;;0.32;100.00
58385;BME280;44185;47.844;8.966;2022-12-05T00:54:46;95969.09;;;0.29;100.00
58385;BME280;44185;47.844;8.966;2022-12-05T00:57:13;95958.91;;;0.25;100.00
58385;BME280;44185;47.844;8.966;2022-12-05T00:59:39;95965.03;;;0.24;100.00
58385;BME280;44185;47.844;8.966;2022-12-05T01:02:04;95969.63;;;0.18;100.00
58385;BME280;44185;47.844;8.966;2022-12-05T01:04:30;95975.59;;;0.20;100.00
58385;BME280;44185;47.844;8.966;2022-12-05T01:06:56;95979.22;;;0.36;100.00
58385;BME280;44185;47.844;8.966;2022-12-05T01:09:22;95997.06;;;0.43;100.00
58385;BME280;44185;47.844;8.966;2022-12-05T01:11:48;96016.34;;;0.39;100.00
58385;BME280;44185;47.844;8.966;2022-12-05T01:14:17;96027.69;;;0.38;100.00
58385;BME280;44185;47.844;8.966;2022-12-05T01:16:45;96039.38;;;0.29;100.00
58385;BME280;44185;47.844;8.966;2022-12-05T01:19:19;96047.88;;;0.33;100.00
58385;BME280;44185;47.844;8.966;2022-12-05T01:21:44;96053.94;;;0.33;100.00
58385;BME280;44185;47.844;8.966;2022-12-05T01:24:13;96055.78;;;0.31;100.00
58385;BME280;44185;47.844;8.966;2022-12-05T01:26:40;96050.47;;;0.33;100.00
58385;BME280;44185;47.844;8.966;2022-12-05T01:29:06;96050.47;;;0.33;100.00
58385;BME280;44185;47.844;8.966;2022-12-05T01:31:35;96040.06;;;0.33;100.00
58385;BME280;44185;47.844;8.966;2022-12-05T01:34:02;96039.94;;;0.36;100.00
58385;BME280;44185;47.844;8.966;2022-12-05T01:36:28;96041.31;;;0.43;100.00
58385;BME280;44185;47.844;8.966;2022-12-05T01:38:55;96035.88;;;0.48;100.00
58385;BME280;44185;47.844;8.966;2022-12-05T01:41:22;96039.81;;;0.57;100.00
58385;BME280;44185;47.844;8.966;2022-12-05T01:43:53;96043.25;;;0.58;100.00
58385;BME280;44185;47.844;8.966;2022-12-05T01:46:19;96045.00;;;0.57;100.00
58385;BME280;44185;47.844;8.966;2022-12-05T01:48:45;96051.69;;;0.63;100.00
58385;BME280;44185;47.844;8.966;2022-12-05T01:51:11;96056.19;;;0.59;100.00
58385;BME280;44185;47.844;8.966;2022-12-05T01:53:37;96054.19;;;0.47;100.00
58385;BME280;44185;47.844;8.966;2022-12-05T01:56:03;96041.63;;;0.55;100.00
58385;BME280;44185;47.844;8.966;2022-12-05T01:58:31;96036.34;;;0.57;100.00
58385;BME280;44185;47.844;8.966;2022-12-05T02:00:58;96040.78;;;0.54;100.00
58385;BME280;44185;47.844;8.966;2022-12-05T02:03:24;96031.03;;;0.40;100.00
58385;BME280;44185;47.844;8.966;2022-12-05T02:05:52;96037.09;;;0.59;100.00
58385;BME280;44185;47.844;8.966;2022-12-05T02:08:19;96045.09;;;0.55;100.00
58385;BME280;44185;47.844;8.966;2022-12-05T02:10:49;96040.50;;;0.61;100.00
58385;BME280;44185;47.844;8.966;2022-12-05T02:13:33;96032.59;;;0.62;100.00
58385;BME280;44185;47.844;8.966;2022-12-05T02:16:04;96042.13;;;0.63;100.00
58385;BME280;44185;47.844;8.966;2022-12-05T02:18:41;96044.53;;;0.66;100.00
58385;BME280;44185;47.844;8.966;2022-12-05T02:21:20;96044.41;;;0.70;100.00
58385;BME280;44185;47.844;8.966;2022-12-05T02:24:14;96052.16;;;0.71;100.00
58385;BME280;44185;47.844;8.966;2022-12-05T02:26:55;96048.22;;;0.62;100.00
58385;BME280;44185;47.844;8.966;2022-12-05T02:29:41;96055.44;;;0.57;100.00
58385;BME280;44185;47.844;8.966;2022-12-05T02:32:16;96058.16;;;0.54;100.00
58385;BME280;44185;47.844;8.966;2022-12-05T02:34:51;96047.84;;;0.52;100.00
58385;BME280;44185;47.844;8.966;2022-12-05T02:37:26;96049.13;;;0.61;100.00
58385;BME280;44185;47.844;8.966;2022-12-05T02:39:55;96054.44;;;0.77;100.00
58385;BME280;44185;47.844;8.966;2022-12-05T02:42:28;96060.63;;;0.75;100.00
58385;BME280;44185;47.844;8.966;2022-12-05T02:44:59;96051.38;;;0.69;100.00
58385;BME280;44185;47.844;8.966;2022-12-05T02:47:28;96045.00;;;0.75;100.00
58385;BME280;44185;47.844;8.966;2022-12-05T02:49:56;96043.25;;;0.75;100.00
58385;BME280;44185;47.844;8.966;2022-12-05T02:52:24;96045.81;;;0.77;100.00
58385;BME280;44185;47.844;8.966;2022-12-05T02:54:52;96035.28;;;0.79;100.00
58385;BME280;44185;47.844;8.966;2022-12-05T02:57:19;96043.03;;;0.80;100.00
58385;BME280;44185;47.844;8.966;2022-12-05T02:59:46;96050.91;;;0.79;100.00
58385;BME280;44185;47.844;8.966;2022-12-05T03:02:23;96046.03;;;0.90;100.00
58385;BME280;44185;47.844;8.966;2022-12-05T03:04:49;96051.06;;;0.93;100.00
58385;BME280;44185;47.844;8.966;2022-12-05T03:07:15;96054.00;;;0.87;100.00
58385;BME280;44185;47.844;8.966;2022-12-05T03:09:46;96070.47;;;0.87;100.00
58385;BME280;44185;47.844;8.966;2022-12-05T03:12:18;96063.28;;;0.93;100.00
58385;BME280;44185;47.844;8.966;2022-12-05T03:14:47;96057.28;;;0.91;100.00
58385;BME280;44185;47.844;8.966;2022-12-05T03:17:15;96062.19;;;0.79;100.00
58385;BME280;44185;47.844;8.966;2022-12-05T03:19:48;96066.47;;;0.80;100.00
58385;BME280;44185;47.844;8.966;2022-12-05T03:22:18;96065.66;;;0.80;100.00
58385;BME280;44185;47.844;8.966;2022-12-05T03:24:45;96063.72;;;0.83;100.00
58385;BME280;44185;47.844;8.966;2022-12-05T03:27:15;96058.13;;;0.91;100.00
58385;BME280;44185;47.844;8.966;2022-12-05T03:29:49;96059.88;;;0.91;100.00
58385;BME280;44185;47.844;8.966;2022-12-05T03:32:21;96060.34;;;0.81;100.00
58385;BME280;44185;47.844;8.966;2022-12-05T03:34:57;96073.75;;;0.73;100.00
58385;BME280;44185;47.844;8.966;2022-12-05T03:37:28;96075.88;;;0.65;100.00
58385;BME280;44185;47.844;8.966;2022-12-05T03:40:04;96079.34;;;0.65;100.00
58385;BME280;44185;47.844;8.966;2022-12-05T03:42:32;96064.84;;;0.77;100.00
58385;BME280;44185;47.844;8.966;2022-12-05T03:45:03;96068.88;;;0.85;100.00
58385;BME280;44185;47.844;8.966;2022-12-05T03:47:36;96070.69;;;0.83;100.00
58385;BME280;44185;47.844;8.966;2022-12-05T03:50:09;96070.47;;;0.87;100.00
58385;BME280;44185;47.844;8.966;2022-12-05T03:52:41;96067.25;;;0.82;100.00
58385;BME280;44185;47.844;8.966;2022-12-05T03:55:10;96062.66;;;0.87;100.00
58385;BME280;44185;47.844;8.966;2022-12-05T03:57:41;96070.78;;;0.81;100.00
58385;BME280;44185;47.844;8.966;2022-12-05T04:00:11;96072.22;;;0.87;100.00
58385;BME280;44185;47.844;8.966;2022-12-05T04:02:40;96071.38;;;0.86;100.00
58385;BME280;44185;47.844;8.966;2022-12-05T04:05:12;96073.00;;;0.89;100.00
58385;BME280;44185;47.844;8.966;2022-12-05T04:07:40;96064.19;;;0.92;100.00
58385;BME280;44185;47.844;8.966;2022-12-05T04:10:12;96056.06;;;0.98;100.00
58385;BME280;44185;47.844;8.966;2022-12-05T04:12:40;96061.56;;;0.92;100.00
58385;BME280;44185;47.844;8.966;2022-12-05T04:15:12;96073.75;;;0.91;100.00
58385;BME280;44185;47.844;8.966;2022-12-05T04:17:44;96067.41;;;0.97;100.00
58385;BME280;44185;47.844;8.966;2022-12-05T04:20:14;96076.72;;;1.01;100.00
58385;BME280;44185;47.844;8.966;2022-12-05T04:22:42;96076.97;;;0.96;100.00
58385;BME280;44185;47.844;8.966;2022-12-05T04:25:10;96088.78;;;1.04;100.00
58385;BME280;44185;47.844;8.966;2022-12-05T04:27:40;96086.78;;;1.09;100.00
58385;BME280;44185;47.844;8.966;2022-12-05T04:30:11;96090.97;;;1.11;100.00
58385;BME280;44185;47.844;8.966;2022-12-05T04:32:43;96092.59;;;1.14;100.00
58385;BME280;44185;47.844;8.966;2022-12-05T04:35:14;96104.03;;;1.11;100.00
58385;BME280;44185;47.844;8.966;2022-12-05T04:37:44;96102.19;;;1.14;100.00
58385;BME280;44185;47.844;8.966;2022-12-05T04:40:13;96100.22;;;1.19;100.00
58385;BME280;44185;47.844;8.966;2022-12-05T04:42:42;96105.34;;;1.20;100.00
58385;BME280;44185;47.844;8.966;2022-12-05T04:45:10;96114.84;;;1.21;100.00
58385;BME280;44185;47.844;8.966;2022-12-05T04:47:40;96114.69;;;1.25;100.00
58385;BME280;44185;47.844;8.966;2022-12-05T04:50:10;96113.59;;;1.29;100.00
58385;BME280;44185;47.844;8.966;2022-12-05T04:52:38;96105.28;;;1.22;100.00
58385;BME280;44185;47.844;8.966;2022-12-05T04:55:08;96112.16;;;1.23;100.00
58385;BME280;44185;47.844;8.966;2022-12-05T04:57:38;96119.72;;;1.28;100.00
58385;BME280;44185;47.844;8.966;2022-12-05T05:00:06;96122.28;;;1.29;100.00
58385;BME280;44185;47.844;8.966;2022-12-05T05:02:39;96114.47;;;1.29;100.00
58385;BME280;44185;47.844;8.966;2022-12-05T05:05:08;96114.53;;;1.28;100.00
58385;BME280;44185;47.844;8.966;2022-12-05T05:07:43;96112.63;;;1.31;100.00
58385;BME280;44185;47.844;8.966;2022-12-05T05:10:10;96123.03;;;1.31;100.00
58385;BME280;44185;47.844;8.966;2022-12-05T05:12:38;96126.41;;;1.33;100.00
58385;BME280;44185;47.844;8.966;2022-12-05T05:15:04;96128.25;;;1.31;100.00
58385;BME280;44185;47.844;8.966;2022-12-05T05:17:30;96125.88;;;1.27;100.00
58385;BME280;44185;47.844;8.966;2022-12-05T05:19:55;96126.56;;;1.30;100.00
58385;BME280;44185;47.844;8.966;2022-12-05T05:22:21;96125.88;;;1.27;100.00
58385;BME280;44185;47.844;8.966;2022-12-05T05:24:48;96137.56;;;1.19;100.00
58385;BME280;44185;47.844;8.966;2022-12-05T05:27:13;96142.75;;;1.19;100.00
58385;BME280;44185;47.844;8.966;2022-12-05T05:29:39;96152.00;;;1.25;100.00
58385;BME280;44185;47.844;8.966;2022-12-05T05:32:04;96148.41;;;1.28;100.00
58385;BME280;44185;47.844;8.966;2022-12-05T05:34:30;96143.13;;;1.29;100.00
58385;BME280;44185;47.844;8.966;2022-12-05T05:36:55;96130.97;;;1.30;100.00
58385;BME280;44185;47.844;8.966;2022-12-05T05:39:20;96131.34;;;1.22;100.00
58385;BME280;44185;47.844;8.966;2022-12-05T05:41:47;96140.38;;;1.15;100.00
58385;BME280;44185;47.844;8.966;2022-12-05T05:44:13;96152.34;;;1.19;100.00
58385;BME280;44185;47.844;8.966;2022-12-05T05:46:38;96166.06;;;1.22;100.00
58385;BME280;44185;47.844;8.966;2022-12-05T05:49:04;96160.78;;;1.24;100.00
58385;BME280;44185;47.844;8.966;2022-12-05T05:51:29;96160.69;;;1.26;100.00
58385;BME280;44185;47.844;8.966;2022-12-05T05:53:56;96161.38;;;1.29;100.00
58385;BME280;44185;47.844;8.966;2022-12-05T05:56:21;96157.16;;;1.27;100.00
58385;BME280;44185;47.844;8.966;2022-12-05T05:58:54;96171.50;;;1.18;100.00
58385;BME280;44185;47.844;8.966;2022-12-05T06:01:20;96169.59;;;1.21;100.00
58385;BME280;44185;47.844;8.966;2022-12-05T06:03:45;96178.41;;;1.19;100.00
58385;BME280;44185;47.844;8.966;2022-12-05T06:06:13;96194.47;;;1.09;100.00
58385;BME280;44185;47.844;8.966;2022-12-05T06:08:42;96196.19;;;1.10;100.00
58385;BME280;44185;47.844;8.966;2022-12-05T06:11:09;96188.91;;;1.17;100.00
58385;BME280;44185;47.844;8.966;2022-12-05T06:13:35;96182.47;;;1.25;100.00
58385;BME280;44185;47.844;8.966;2022-12-05T06:16:03;96184.84;;;1.29;100.00
58385;BME280;44185;47.844;8.966;2022-12-05T06:18:29;96192.50;;;1.15;100.00
58385;BME280;44185;47.844;8.966;2022-12-05T06:20:56;96190.81;;;1.14;100.00
58385;BME280;44185;47.844;8.966;2022-12-05T06:23:22;96195.03;;;1.16;100.00
58385;BME280;44185;47.844;8.966;2022-12-05T06:25:49;96183.63;;;1.19;100.00
58385;BME280;44185;47.844;8.966;2022-12-05T06:28:15;96196.56;;;1.20;100.00
58385;BME280;44185;47.844;8.966;2022-12-05T06:30:40;96199.03;;;1.24;100.00
58385;BME280;44185;47.844;8.966;2022-12-05T06:33:07;96198.13;;;1.25;100.00
58385;BME280;44185;47.844;8.966;2022-12-05T06:35:33;96204.25;;;1.24;100.00
58385;BME280;44185;47.844;8.966;2022-12-05T06:37:58;96204.69;;;1.14;100.00
58385;BME280;44185;47.844;8.966;2022-12-05T06:40:24;96210.13;;;1.09;100.00
58385;BME280;44185;47.844;8.966;2022-12-05T06:42:49;96209.69;;;1.19;100.00
58385;BME280;44185;47.844;8.966;2022-12-05T06:45:15;96204.88;;;1.29;100.00
58385;BME280;44185;47.844;8.966;2022-12-05T06:47:40;96210.38;;;1.22;100.00
58385;BME280;44185;47.844;8.966;2022-12-05T06:50:08;96209.47;;;1.24;100.00
58385;BME280;44185;47.844;8.966;2022-12-05T06:52:34;96214.44;;;1.28;100.00
58385;BME280;44185;47.844;8.966;2022-12-05T06:54:59;96222.63;;;1.20;100.00
58385;BME280;44185;47.844;8.966;2022-12-05T06:57:26;96220.53;;;1.09;100.00
58385;BME280;44185;47.844;8.966;2022-12-05T06:59:52;96227.13;;;0.99;100.00
58385;BME280;44185;47.844;8.966;2022-12-05T07:02:17;96220.50;;;1.11;100.00
58385;BME280;44185;47.844;8.966;2022-12-05T07:04:43;96225.13;;;1.04;100.00
58385;BME280;44185;47.844;8.966;2022-12-05T07:07:10;96218.09;;;1.06;100.00
58385;BME280;44185;47.844;8.966;2022-12-05T07:09:35;96217.88;;;1.11;100.00
58385;BME280;44185;47.844;8.966;2022-12-05T07:12:01;96222.88;;;1.16;100.00
58385;BME280;44185;47.844;8.966;2022-12-05T07:14:26;96219.19;;;1.20;100.00
58385;BME280;44185;47.844;8.966;2022-12-05T07:16:51;96230.13;;;1.09;100.00
58385;BME280;44185;47.844;8.966;2022-12-05T07:19:17;96237.94;;;1.09;100.00
58385;BME280;44185;47.844;8.966;2022-12-05T07:21:42;96246.31;;;1.16;100.00
58385;BME280;44185;47.844;8.966;2022-12-05T07:24:09;96231.69;;;1.31;100.00
58385;BME280;44185;47.844;8.966;2022-12-05T07:26:35;96239.75;;;1.26;100.00
58385;BME280;44185;47.844;8.966;2022-12-05T07:29:00;96236.75;;;1.16;100.00
58385;BME280;44185;47.844;8.966;2022-12-05T07:31:26;96241.03;;;1.17;100.00
58385;BME280;44185;47.844;8.966;2022-12-05T07:33:51;96243.00;;;1.12;100.00
58385;BME280;44185;47.844;8.966;2022-12-05T07:36:18;96244.94;;;1.08;100.00
58385;BME280;44185;47.844;8.966;2022-12-05T07:38:45;96243.59;;;1.19;100.00
58385;BME280;44185;47.844;8.966;2022-12-05T07:41:14;96256.63;;;1.19;100.00
58385;BME280;44185;47.844;8.966;2022-12-05T07:43:41;96253.44;;;1.12;100.00
58385;BME280;44185;47.844;8.966;2022-12-05T07:46:09;96255.00;;;1.16;100.00
58385;BME280;44185;47.844;8.966;2022-12-05T07:48:35;96255.91;;;1.15;100.00
58385;BME280;44185;47.844;8.966;2022-12-05T07:51:01;96266.72;;;1.25;100.00
58385;BME280;44185;47.844;8.966;2022-12-05T07:53:28;96260.47;;;1.29;100.00
58385;BME280;44185;47.844;8.966;2022-12-05T07:55:54;96262.50;;;1.22;100.00
58385;BME280;44185;47.844;8.966;2022-12-05T07:58:21;96264.56;;;1.16;100.00
58385;BME280;44185;47.844;8.966;2022-12-05T08:00:46;96270.50;;;1.19;100.00
58385;BME280;44185;47.844;8.966;2022-12-05T08:03:11;96271.19;;;1.23;100.00
58385;BME280;44185;47.844;8.966;2022-12-05T08:05:37;96281.09;;;1.34;100.00
58385;BME280;44185;47.844;8.966;2022-12-05T08:08:02;96286.94;;;1.39;100.00
58385;BME280;44185;47.844;8.966;2022-12-05T08:10:28;96295.28;;;1.46;100.00
58385;BME280;44185;47.844;8.966;2022-12-05T08:12:53;96297.50;;;1.36;100.00
58385;BME280;44185;47.844;8.966;2022-12-05T08:15:20;96294.84;;;1.38;100.00
58385;BME280;44185;47.844;8.966;2022-12-05T08:17:46;96301.19;;;1.32;100.00
58385;BME280;44185;47.844;8.966;2022-12-05T08:20:12;96302.41;;;1.25;100.00
58385;BME280;44185;47.844;8.966;2022-12-05T08:22:37;96312.91;;;1.23;100.00
58385;BME280;44185;47.844;8.966;2022-12-05T08:25:03;96309.16;;;1.29;100.00
58385;BME280;44185;47.844;8.966;2022-12-05T08:27:29;96302.09;;;1.31;100.00
58385;BME280;44185;47.844;8.966;2022-12-05T08:29:54;96302.88;;;1.33;100.00
58385;BME280;44185;47.844;8.966;2022-12-05T08:32:21;96301.31;;;1.48;100.00
58385;BME280;44185;47.844;8.966;2022-12-05T08:34:46;96304.72;;;1.49;100.00
58385;BME280;44185;47.844;8.966;2022-12-05T08:37:12;96303.91;;;1.48;100.00
58385;BME280;44185;47.844;8.966;2022-12-05T08:39:37;96306.34;;;1.51;100.00
58385;BME280;44185;47.844;8.966;2022-12-05T08:42:03;96306.91;;;1.58;100.00
58385;BME280;44185;47.844;8.966;2022-12-05T08:44:28;96313.97;;;1.56;100.00
58385;BME280;44185;47.844;8.966;2022-12-05T08:46:54;96321.56;;;1.61;100.00
58385;BME280;44185;47.844;8.966;2022-12-05T08:49:20;96329.09;;;1.67;100.00
58385;BME280;44185;47.844;8.966;2022-12-05T08:51:46;96335.75;;;1.55;100.00
58385;BME280;44185;47.844;8.966;2022-12-05T08:54:12;96336.22;;;1.63;100.00
58385;BME280;44185;47.844;8.966;2022-12-05T08:56:37;96336.38;;;1.60;100.00
58385;BME280;44185;47.844;8.966;2022-12-05T08:59:03;96332.78;;;1.63;100.00
58385;BME280;44185;47.844;8.966;2022-12-05T09:01:29;96332.25;;;1.74;100.00
58385;BME280;44185;47.844;8.966;2022-12-05T09:03:55;96324.13;;;1.80;100.00
58385;BME280;44185;47.844;8.966;2022-12-05T09:06:23;96334.25;;;1.86;100.00
58385;BME280;44185;47.844;8.966;2022-12-05T09:08:53;96335.16;;;1.67;100.00
58385;BME280;44185;47.844;8.966;2022-12-05T09:11:20;96335.31;;;1.64;100.00
58385;BME280;44185;47.844;8.966;2022-12-05T09:13:46;96336.09;;;1.66;100.00
58385;BME280;44185;47.844;8.966;2022-12-05T09:16:14;96345.22;;;1.75;100.00
58385;BME280;44185;47.844;8.966;2022-12-05T09:18:40;96343.69;;;1.71;100.00
58385;BME280;44185;47.844;8.966;2022-12-05T09:21:06;96352.66;;;1.65;100.00
58385;BME280;44185;47.844;8.966;2022-12-05T09:23:33;96353.09;;;1.56;100.00
58385;BME280;44185;47.844;8.966;2022-12-05T09:25:59;96353.94;;;1.57;100.00
58385;BME280;44185;47.844;8.966;2022-12-05T09:28:24;96357.00;;;1.65;100.00
58385;BME280;44185;47.844;8.966;2022-12-05T09:30:55;96349.28;;;1.81;100.00
58385;BME280;44185;47.844;8.966;2022-12-05T09:33:20;96345.53;;;1.87;100.00
58385;BME280;44185;47.844;8.966;2022-12-05T09:35:46;96344.84;;;1.83;100.00
58385;BME280;44185;47.844;8.966;2022-12-05T09:38:11;96355.59;;;1.95;100.00
58385;BME280;44185;47.844;8.966;2022-12-05T09:40:40;96360.91;;;1.93;100.00
58385;BME280;44185;47.844;8.966;2022-12-05T09:43:07;96358.28;;;1.93;100.00
58385;BME280;44185;47.844;8.966;2022-12-05T09:45:39;96361.59;;;1.97;100.00
58385;BME280;44185;47.844;8.966;2022-12-05T09:48:11;96367.81;;;1.94;100.00
58385;BME280;44185;47.844;8.966;2022-12-05T09:50:44;96365.13;;;1.96;100.00
58385;BME280;44185;47.844;8.966;2022-12-05T09:53:17;96357.06;;;2.00;100.00
58385;BME280;44185;47.844;8.966;2022-12-05T09:55:50;96367.22;;;2.07;100.00
58385;BME280;44185;47.844;8.966;2022-12-05T09:58:26;96361.06;;;2.08;100.00
58385;BME280;44185;47.844;8.966;2022-12-05T10:00:58;96358.16;;;2.14;100.00
58385;BME280;44185;47.844;8.966;2022-12-05T10:03:32;96368.44;;;2.17;100.00
58385;BME280;44185;47.844;8.966;2022-12-05T10:06:10;96359.91;;;2.14;100.00
58385;BME280;44185;47.844;8.966;2022-12-05T10:09:01;96350.31;;;2.14;100.00
58385;BME280;44185;47.844;8.966;2022-12-05T10:11:34;96351.44;;;2.26;100.00
58385;BME280;44185;47.844;8.966;2022-12-05T10:14:08;96350.91;;;2.37;100.00
58385;BME280;44185;47.844;8.966;2022-12-05T10:16:36;96354.47;;;2.36;100.00
58385;BME280;44185;47.844;8.966;2022-12-05T10:19:10;96350.25;;;2.33;100.00
58385;BME280;44185;47.844;8.966;2022-12-05T10:21:43;96344.78;;;2.38;100.00
58385;BME280;44185;47.844;8.966;2022-12-05T10:24:14;96341.00;;;2.44;100.00
58385;BME280;44185;47.844;8.966;2022-12-05T10:26:44;96336.28;;;2.51;100.00
58385;BME280;44185;47.844;8.966;2022-12-05T10:29:17;96348.19;;;2.57;100.00
58385;BME280;44185;47.844;8.966;2022-12-05T10:31:48;96349.47;;;2.65;100.00
58385;BME280;44185;47.844;8.966;2022-12-05T10:34:24;96355.94;;;2.58;100.00
58385;BME280;44185;47.844;8.966;2022-12-05T10:36:55;96351.13;;;2.50;100.00
58385;BME280;44185;47.844;8.966;2022-12-05T10:39:24;96342.38;;;2.51;100.00
58385;BME280;44185;47.844;8.966;2022-12-05T10:41:51;96339.50;;;2.56;100.00
58385;BME280;44185;47.844;8.966;2022-12-05T10:44:16;96335.75;;;2.62;100.00
58385;BME280;44185;47.844;8.966;2022-12-05T10:46:42;96328.66;;;2.64;100.00
58385;BME280;44185;47.844;8.966;2022-12-05T10:49:10;96337.84;;;2.71;100.00
58385;BME280;44185;47.844;8.966;2022-12-05T10:51:35;96329.34;;;2.67;100.00
58385;BME280;44185;47.844;8.966;2022-12-05T10:54:13;96325.31;;;2.78;100.00
58385;BME280;44185;47.844;8.966;2022-12-05T10:56:41;96315.22;;;2.88;100.00
58385;BME280;44185;47.844;8.966;2022-12-05T10:59:10;96319.53;;;2.89;100.00
58385;BME280;44185;47.844;8.966;2022-12-05T11:01:36;96320.41;;;2.72;100.00
58385;BME280;44185;47.844;8.966;2022-12-05T11:04:08;96315.53;;;2.82;100.00
58385;BME280;44185;47.844;8.966;2022-12-05T11:06:34;96311.09;;;2.84;100.00
58385;BME280;44185;47.844;8.966;2022-12-05T11:09:04;96304.91;;;2.85;100.00
58385;BME280;44185;47.844;8.966;2022-12-05T11:11:31;96310.91;;;2.71;100.00
58385;BME280;44185;47.844;8.966;2022-12-05T11:13:59;96312.81;;;2.67;100.00
58385;BME280;44185;47.844;8.966;2022-12-05T11:16:29;96310.06;;;2.70;100.00
58385;BME280;44185;47.844;8.966;2022-12-05T11:18:54;96318.56;;;2.74;100.00
58385;BME280;44185;47.844;8.966;2022-12-05T11:21:20;96314.53;;;2.84;100.00
58385;BME280;44185;47.844;8.966;2022-12-05T11:23:46;96321.75;;;2.79;100.00
58385;BME280;44185;47.844;8.966;2022-12-05T11:26:32;96314.78;;;2.80;100.00
58385;BME280;44185;47.844;8.966;2022-12-05T11:28:58;96325.34;;;2.94;100.00
58385;BME280;44185;47.844;8.966;2022-12-05T11:31:28;96320.44;;;2.88;100.00
58385;BME280;44185;47.844;8.966;2022-12-05T11:34:03;96315.38;;;2.85;100.00
58385;BME280;44185;47.844;8.966;2022-12-05T11:36:40;96315.63;;;2.80;100.00
58385;BME280;44185;47.844;8.966;2022-12-05T11:39:09;96319.44;;;2.91;100.00
58385;BME280;44185;47.844;8.966;2022-12-05T11:41:46;96311.19;;;2.98;100.00
58385;BME280;44185;47.844;8.966;2022-12-05T11:44:50;96308.31;;;3.03;100.00
58385;BME280;44185;47.844;8.966;2022-12-05T11:47:35;96310.28;;;3.16;100.00
58385;BME280;44185;47.844;8.966;2022-12-05T11:50:14;96308.81;;;3.10;100.00
58385;BME280;44185;47.844;8.966;2022-12-05T11:52:53;96308.66;;;3.13;100.00
58385;BME280;44185;47.844;8.966;2022-12-05T11:55:23;96306.28;;;3.08;100.00
58385;BME280;44185;47.844;8.966;2022-12-05T11:58:02;96315.06;;;3.07;100.00
58385;BME280;44185;47.844;8.966;2022-12-05T12:00:35;96306.81;;;3.15;100.00
58385;BME280;44185;47.844;8.966;2022-12-05T12:03:23;96312.78;;;3.17;100.00
58385;BME280;44185;47.844;8.966;2022-12-05T12:06:08;96309.16;;;3.20;100.00
58385;BME280;44185;47.844;8.966;2022-12-05T12:08:46;96307.97;;;3.26;100.00
58385;BME280;44185;47.844;8.966;2022-12-05T12:11:22;96298.69;;;3.20;100.00
58385;BME280;44185;47.844;8.966;2022-12-05T12:13:57;96298.59;;;3.21;100.00
58385;BME280;44185;47.844;8.966;2022-12-05T12:16:32;96292.56;;;3.21;100.00
58385;BME280;44185;47.844;8.966;2022-12-05T12:19:24;96288.66;;;3.28;100.00
58385;BME280;44185;47.844;8.966;2022-12-05T12:22:06;96288.50;;;3.31;100.00
58385;BME280;44185;47.844;8.966;2022-12-05T12:27:38;96287.97;;;3.41;100.00
58385;BME280;44185;47.844;8.966;2022-12-05T12:30:12;96280.69;;;3.46;100.00
58385;BME280;44185;47.844;8.966;2022-12-05T12:32:45;96280.34;;;3.52;100.00
58385;BME280;44185;47.844;8.966;2022-12-05T12:35:26;96276.44;;;3.60;100.00
58385;BME280;44185;47.844;8.966;2022-12-05T12:38:02;96277.47;;;3.57;100.00
58385;BME280;44185;47.844;8.966;2022-12-05T12:40:34;96276.88;;;3.68;100.00
58385;BME280;44185;47.844;8.966;2022-12-05T12:43:07;96272.53;;;3.67;100.00
58385;BME280;44185;47.844;8.966;2022-12-05T12:45:47;96279.38;;;3.70;100.00
58385;BME280;44185;47.844;8.966;2022-12-05T12:48:26;96265.81;;;3.63;100.00
58385;BME280;44185;47.844;8.966;2022-12-05T12:51:00;96267.69;;;3.61;100.00
58385;BME280;44185;47.844;8.966;2022-12-05T12:53:51;96272.38;;;3.70;100.00
58385;BME280;44185;47.844;8.966;2022-12-05T12:56:34;96278.19;;;3.75;100.00
58385;BME280;44185;47.844;8.966;2022-12-05T12:59:12;96280.22;;;3.70;100.00
58385;BME280;44185;47.844;8.966;2022-12-05T13:01:46;96287.50;;;3.65;100.00
58385;BME280;44185;47.844;8.966;2022-12-05T13:04:15;96288.81;;;3.72;100.00
58385;BME280;44185;47.844;8.966;2022-12-05T13:06:46;96291.69;;;3.53;100.00
58385;BME280;44185;47.844;8.966;2022-12-05T13:09:17;96292.13;;;3.45;100.00
58385;BME280;44185;47.844;8.966;2022-12-05T13:11:46;96285.09;;;3.45;100.00
58385;BME280;44185;47.844;8.966;2022-12-05T13:14:16;96290.38;;;3.60;100.00